sensor_id;sensor_type;location;lat;lon;timestamp;pressure;altitude;pressure_sealevel;temperature;humidity
56825;BME280;42705;50.326;18.772;2023-03-05T00:04:28;98159.35;;;1.34;72.49
56825;BME280;42705;50.326;18.772;2023-03-05T00:09:50;98158.82;;;1.37;72.24
56825;BME280;42705;50.326;18.772;2023-03-05T00:15:12;98155.90;;;1.31;71.49
56825;BME280;42705;50.326;18.772;2023-03-05T00:20:34;98149.88;;;1.16;70.47
56825;BME280;42705;50.326;18.772;2023-03-05T00:26:00;98147.73;;;1.05;70.18
56825;BME280;42705;50.326;18.772;2023-03-05T00:31:25;98149.59;;;1.03;70.01
56825;BME280;42705;50.326;18.772;2023-03-05T00:36:51;98143.35;;;0.97;69.46
56825;BME280;42705;50.326;18.772;2023-03-05T00:42:14;98139.78;;;0.90;68.83
56825;BME280;42705;50.326;18.772;2023-03-05T00:47:36;98135.41;;;0.79;68.34
56825;BME280;42705;50.326;18.772;2023-03-05T00:52:59;98131.38;;;0.71;67.68
56825;BME280;42705;50.326;18.772;2023-03-05T00:58:21;98127.39;;;0.66;67.46
56825;BME280;42705;50.326;18.772;2023-03-05T01:03:44;98118.54;;;0.58;67.55
56825;BME280;42705;50.326;18.772;2023-03-05T01:09:05;98113.94;;;0.57;67.24
56825;BME280;42705;50.326;18.772;2023-03-05T01:14:27;98109.77;;;0.61;67.17
56825;BME280;42705;50.326;18.772;2023-03-05T01:19:49;98108.36;;;0.65;67.25
56825;BME280;42705;50.326;18.772;2023-03-05T01:25:12;98099.32;;;0.64;66.86
56825;BME280;42705;50.326;18.772;2023-03-05T01:30:34;98095.83;;;0.59;66.83
56825;BME280;42705;50.326;18.772;2023-03-05T01:35:56;98094.55;;;0.56;66.71
56825;BME280;42705;50.326;18.772;2023-03-05T01:41:19;98096.73;;;0.51;66.29
56825;BME280;42705;50.326;18.772;2023-03-05T01:46:41;98097.71;;;0.46;66.01
56825;BME280;42705;50.326;18.772;2023-03-05T01:52:12;98097.95;;;0.41;65.74
56825;BME280;42705;50.326;18.772;2023-03-05T01:57:45;98093.96;;;0.39;65.87
56825;BME280;42705;50.326;18.772;2023-03-05T02:03:09;98084.52;;;0.39;65.63
56825;BME280;42705;50.326;18.772;2023-03-05T02:08:32;98082.48;;;0.39;65.47
56825;BME280;42705;50.326;18.772;2023-03-05T02:13:55;98079.03;;;0.36;65.32
56825;BME280;42705;50.326;18.772;2023-03-05T02:19:17;98072.64;;;0.33;64.93
56825;BME280;42705;50.326;18.772;2023-03-05T02:24:39;98074.36;;;0.30;64.68
56825;BME280;42705;50.326;18.772;2023-03-05T02:30:02;98077.77;;;0.24;64.45
56825;BME280;42705;50.326;18.772;2023-03-05T02:35:24;98067.30;;;0.11;64.21
56825;BME280;42705;50.326;18.772;2023-03-05T02:40:46;98067.77;;;0.02;64.27
56825;BME280;42705;50.326;18.772;2023-03-05T02:46:08;98073.53;;;-0.03;64.30
56825;BME280;42705;50.326;18.772;2023-03-05T02:51:30;98061.77;;;-0.11;64.48
56825;BME280;42705;50.326;18.772;2023-03-05T02:56:53;98060.23;;;-0.11;64.67
56825;BME280;42705;50.326;18.772;2023-03-05T03:02:17;98062.65;;;-0.08;64.86
56825;BME280;42705;50.326;18.772;2023-03-05T03:07:40;98068.56;;;-0.23;64.33
56825;BME280;42705;50.326;18.772;2023-03-05T03:13:02;98059.59;;;-0.41;64.31
56825;BME280;42705;50.326;18.772;2023-03-05T03:18:25;98060.84;;;-0.46;64.53
56825;BME280;42705;50.326;18.772;2023-03-05T03:23:47;98055.11;;;-0.54;64.85
56825;BME280;42705;50.326;18.772;2023-03-05T03:29:09;98052.48;;;-0.64;65.15
56825;BME280;42705;50.326;18.772;2023-03-05T03:34:31;98047.55;;;-0.67;65.34
56825;BME280;42705;50.326;18.772;2023-03-05T03:39:52;98049.75;;;-0.64;65.71
56825;BME280;42705;50.326;18.772;2023-03-05T03:45:14;98044.40;;;-0.63;65.53
56825;BME280;42705;50.326;18.772;2023-03-05T03:50:40;98045.13;;;-0.70;65.31
56825;BME280;42705;50.326;18.772;2023-03-05T03:56:03;98033.58;;;-0.76;65.10
56825;BME280;42705;50.326;18.772;2023-03-05T04:01:25;98032.61;;;-0.77;65.37
56825;BME280;42705;50.326;18.772;2023-03-05T04:06:47;98022.23;;;-0.79;65.28
56825;BME280;42705;50.326;18.772;2023-03-05T04:12:09;98009.77;;;-0.77;64.95
56825;BME280;42705;50.326;18.772;2023-03-05T04:17:31;98001.83;;;-0.76;64.68
56825;BME280;42705;50.326;18.772;2023-03-05T04:22:53;97997.47;;;-0.74;64.66
56825;BME280;42705;50.326;18.772;2023-03-05T04:28:15;97990.98;;;-0.78;64.21
56825;BME280;42705;50.326;18.772;2023-03-05T04:33:38;97984.88;;;-0.83;64.38
56825;BME280;42705;50.326;18.772;2023-03-05T04:39:00;97989.00;;;-0.86;64.40
56825;BME280;42705;50.326;18.772;2023-03-05T04:44:22;98004.85;;;-0.94;64.60
56825;BME280;42705;50.326;18.772;2023-03-05T04:49:46;98006.63;;;-0.96;64.90
56825;BME280;42705;50.326;18.772;2023-03-05T04:55:09;98000.66;;;-0.96;65.09
56825;BME280;42705;50.326;18.772;2023-03-05T05:00:32;98001.33;;;-1.00;65.00
56825;BME280;42705;50.326;18.772;2023-03-05T05:05:58;98007.59;;;-1.08;64.90
56825;BME280;42705;50.326;18.772;2023-03-05T05:11:21;98007.09;;;-1.19;64.97
56825;BME280;42705;50.326;18.772;2023-03-05T05:16:43;98007.66;;;-1.23;65.11
56825;BME280;42705;50.326;18.772;2023-03-05T05:22:05;98006.53;;;-1.14;65.51
56825;BME280;42705;50.326;18.772;2023-03-05T05:27:27;98010.61;;;-1.04;65.77
56825;BME280;42705;50.326;18.772;2023-03-05T05:32:49;98005.77;;;-1.06;65.55
56825;BME280;42705;50.326;18.772;2023-03-05T05:38:10;97994.66;;;-1.17;65.58
56825;BME280;42705;50.326;18.772;2023-03-05T05:43:33;98000.31;;;-1.27;65.95
56825;BME280;42705;50.326;18.772;2023-03-05T05:48:55;98000.11;;;-1.26;66.28
56825;BME280;42705;50.326;18.772;2023-03-05T05:54:17;98003.41;;;-1.27;66.80
56825;BME280;42705;50.326;18.772;2023-03-05T05:59:40;98003.29;;;-1.32;66.91
56825;BME280;42705;50.326;18.772;2023-03-05T06:05:02;97998.27;;;-1.34;66.97
56825;BME280;42705;50.326;18.772;2023-03-05T06:10:24;97995.44;;;-1.43;67.57
56825;BME280;42705;50.326;18.772;2023-03-05T06:15:57;97995.02;;;-1.49;67.91
56825;BME280;42705;50.326;18.772;2023-03-05T06:21:19;97989.11;;;-1.43;68.29
56825;BME280;42705;50.326;18.772;2023-03-05T06:26:42;97985.42;;;-1.49;68.64
56825;BME280;42705;50.326;18.772;2023-03-05T06:32:05;97982.81;;;-1.55;68.97
56825;BME280;42705;50.326;18.772;2023-03-05T06:37:27;97979.40;;;-1.51;69.53
56825;BME280;42705;50.326;18.772;2023-03-05T06:42:49;97974.10;;;-1.45;69.96
56825;BME280;42705;50.326;18.772;2023-03-05T06:48:11;97964.74;;;-1.42;70.13
56825;BME280;42705;50.326;18.772;2023-03-05T06:53:33;97966.04;;;-1.48;70.48
56825;BME280;42705;50.326;18.772;2023-03-05T06:58:55;97964.58;;;-1.53;70.87
56825;BME280;42705;50.326;18.772;2023-03-05T07:04:17;97959.52;;;-1.51;71.40
56825;BME280;42705;50.326;18.772;2023-03-05T07:09:39;97956.43;;;-1.41;71.96
56825;BME280;42705;50.326;18.772;2023-03-05T07:15:05;97945.72;;;-1.25;71.70
56825;BME280;42705;50.326;18.772;2023-03-05T07:20:27;97940.27;;;-1.06;71.78
56825;BME280;42705;50.326;18.772;2023-03-05T07:25:50;97936.52;;;-1.00;71.55
56825;BME280;42705;50.326;18.772;2023-03-05T07:31:16;97937.48;;;-0.91;71.69
56825;BME280;42705;50.326;18.772;2023-03-05T07:36:42;97933.29;;;-0.90;71.82
56825;BME280;42705;50.326;18.772;2023-03-05T07:42:04;97925.53;;;-0.92;71.92
56825;BME280;42705;50.326;18.772;2023-03-05T07:47:32;97918.52;;;-0.77;72.17
56825;BME280;42705;50.326;18.772;2023-03-05T07:52:54;97915.46;;;-0.70;72.13
56825;BME280;42705;50.326;18.772;2023-03-05T07:58:16;97918.27;;;-0.55;72.06
56825;BME280;42705;50.326;18.772;2023-03-05T08:03:40;97915.84;;;-0.55;71.86
56825;BME280;42705;50.326;18.772;2023-03-05T08:09:02;97910.77;;;-0.60;71.87
56825;BME280;42705;50.326;18.772;2023-03-05T08:14:24;97911.73;;;-0.62;72.03
56825;BME280;42705;50.326;18.772;2023-03-05T08:19:46;97906.57;;;-0.67;72.01
56825;BME280;42705;50.326;18.772;2023-03-05T08:25:08;97902.17;;;-0.69;72.13
56825;BME280;42705;50.326;18.772;2023-03-05T08:30:30;97897.59;;;-0.64;72.49
56825;BME280;42705;50.326;18.772;2023-03-05T08:35:52;97896.67;;;-0.56;72.35
56825;BME280;42705;50.326;18.772;2023-03-05T08:41:16;97889.67;;;-0.44;72.38
56825;BME280;42705;50.326;18.772;2023-03-05T08:46:39;97887.23;;;-0.34;72.23
56825;BME280;42705;50.326;18.772;2023-03-05T08:52:01;97884.48;;;-0.21;72.06
56825;BME280;42705;50.326;18.772;2023-03-05T08:57:23;97882.09;;;-0.21;72.14
56825;BME280;42705;50.326;18.772;2023-03-05T09:02:45;97878.05;;;-0.20;72.30
56825;BME280;42705;50.326;18.772;2023-03-05T09:08:08;97874.39;;;-0.15;72.69
56825;BME280;42705;50.326;18.772;2023-03-05T09:14:12;97872.27;;;-0.21;73.02
56825;BME280;42705;50.326;18.772;2023-03-05T09:19:35;97868.27;;;-0.20;73.22
56825;BME280;42705;50.326;18.772;2023-03-05T09:24:57;97866.93;;;-0.21;73.78
56825;BME280;42705;50.326;18.772;2023-03-05T09:30:19;97871.52;;;-0.23;74.41
56825;BME280;42705;50.326;18.772;2023-03-05T09:35:41;97879.45;;;-0.26;74.74
56825;BME280;42705;50.326;18.772;2023-03-05T09:52:42;97888.08;;;-0.15;75.53
56825;BME280;42705;50.326;18.772;2023-03-05T09:58:34;97890.95;;;-0.14;75.65
56825;BME280;42705;50.326;18.772;2023-03-05T10:09:45;97878.27;;;0.13;75.74
56825;BME280;42705;50.326;18.772;2023-03-05T10:15:25;97867.34;;;0.24;75.37
56825;BME280;42705;50.326;18.772;2023-03-05T10:20:54;97865.59;;;0.25;75.37
56825;BME280;42705;50.326;18.772;2023-03-05T10:31:55;97853.84;;;0.29;75.19
56825;BME280;42705;50.326;18.772;2023-03-05T10:37:42;97849.09;;;0.31;74.70
56825;BME280;42705;50.326;18.772;2023-03-05T10:43:20;97843.50;;;0.33;74.49
56825;BME280;42705;50.326;18.772;2023-03-05T10:48:58;97834.67;;;0.36;74.40
56825;BME280;42705;50.326;18.772;2023-03-05T10:54:29;97832.85;;;0.41;74.04
56825;BME280;42705;50.326;18.772;2023-03-05T10:59:56;97826.42;;;0.60;73.69
56825;BME280;42705;50.326;18.772;2023-03-05T11:11:34;97816.98;;;1.08;72.28
56825;BME280;42705;50.326;18.772;2023-03-05T11:16:56;97806.65;;;1.22;71.73
56825;BME280;42705;50.326;18.772;2023-03-05T11:22:20;97804.91;;;1.44;70.81
56825;BME280;42705;50.326;18.772;2023-03-05T11:27:53;97795.28;;;1.49;69.47
56825;BME280;42705;50.326;18.772;2023-03-05T11:33:18;97795.30;;;1.49;69.11
56825;BME280;42705;50.326;18.772;2023-03-05T11:38:50;97802.08;;;1.42;67.88
56825;BME280;42705;50.326;18.772;2023-03-05T11:44:16;97796.27;;;1.31;67.64
56825;BME280;42705;50.326;18.772;2023-03-05T11:49:44;97790.64;;;1.08;66.96
56825;BME280;42705;50.326;18.772;2023-03-05T12:00:37;97788.83;;;0.79;65.25
56825;BME280;42705;50.326;18.772;2023-03-05T12:11:35;97772.70;;;1.41;63.09
56825;BME280;42705;50.326;18.772;2023-03-05T12:22:37;97750.52;;;3.08;60.40
56825;BME280;42705;50.326;18.772;2023-03-05T12:28:01;97751.98;;;3.48;58.95
56825;BME280;42705;50.326;18.772;2023-03-05T12:33:36;97740.83;;;3.30;57.02
56825;BME280;42705;50.326;18.772;2023-03-05T12:38:59;97739.27;;;2.76;56.35
56825;BME280;42705;50.326;18.772;2023-03-05T12:44:21;97743.59;;;2.59;57.77
56825;BME280;42705;50.326;18.772;2023-03-05T12:49:46;97741.18;;;2.31;56.89
56825;BME280;42705;50.326;18.772;2023-03-05T12:55:22;97758.44;;;1.94;56.12
56825;BME280;42705;50.326;18.772;2023-03-05T13:06:33;97747.61;;;1.25;56.92
56825;BME280;42705;50.326;18.772;2023-03-05T13:11:56;97754.89;;;0.97;58.18
56825;BME280;42705;50.326;18.772;2023-03-05T13:28:25;97730.48;;;0.88;60.63
56825;BME280;42705;50.326;18.772;2023-03-05T13:33:52;97727.79;;;1.06;61.29
56825;BME280;42705;50.326;18.772;2023-03-05T13:39:20;97724.56;;;1.25;61.35
56825;BME280;42705;50.326;18.772;2023-03-05T13:44:53;97715.75;;;1.34;61.31
56825;BME280;42705;50.326;18.772;2023-03-05T13:50:23;97700.96;;;1.39;61.61
56825;BME280;42705;50.326;18.772;2023-03-05T13:55:47;97700.10;;;1.36;60.71
56825;BME280;42705;50.326;18.772;2023-03-05T14:01:20;97698.74;;;1.22;60.08
56825;BME280;42705;50.326;18.772;2023-03-05T14:12:43;97698.18;;;0.96;60.23
56825;BME280;42705;50.326;18.772;2023-03-05T14:23:44;97683.28;;;0.70;62.22
56825;BME280;42705;50.326;18.772;2023-03-05T14:34:40;97671.52;;;0.61;62.61
56825;BME280;42705;50.326;18.772;2023-03-05T14:40:15;97666.02;;;0.61;63.08
56825;BME280;42705;50.326;18.772;2023-03-05T14:45:41;97663.70;;;0.70;63.15
56825;BME280;42705;50.326;18.772;2023-03-05T14:51:06;97656.92;;;0.82;62.91
56825;BME280;42705;50.326;18.772;2023-03-05T14:56:28;97663.53;;;0.87;62.35
56825;BME280;42705;50.326;18.772;2023-03-05T15:01:50;97655.16;;;0.80;62.30
56825;BME280;42705;50.326;18.772;2023-03-05T15:07:30;97660.52;;;0.69;61.81
56825;BME280;42705;50.326;18.772;2023-03-05T15:12:53;97670.09;;;0.62;61.74
56825;BME280;42705;50.326;18.772;2023-03-05T15:18:18;97660.23;;;0.57;61.89
56825;BME280;42705;50.326;18.772;2023-03-05T15:23:41;97668.29;;;0.52;62.13
56825;BME280;42705;50.326;18.772;2023-03-05T15:29:05;97672.64;;;0.48;62.72
56825;BME280;42705;50.326;18.772;2023-03-05T15:34:28;97662.79;;;0.46;62.89
56825;BME280;42705;50.326;18.772;2023-03-05T15:39:51;97663.20;;;0.37;63.22
56825;BME280;42705;50.326;18.772;2023-03-05T15:45:15;97649.17;;;0.24;63.34
56825;BME280;42705;50.326;18.772;2023-03-05T15:50:40;97656.09;;;0.15;63.98
56825;BME280;42705;50.326;18.772;2023-03-05T15:56:03;97655.35;;;0.10;64.80
56825;BME280;42705;50.326;18.772;2023-03-05T16:01:26;97664.58;;;0.03;65.55
56825;BME280;42705;50.326;18.772;2023-03-05T16:06:49;97665.73;;;-0.03;65.77
56825;BME280;42705;50.326;18.772;2023-03-05T16:12:14;97670.73;;;-0.06;66.09
56825;BME280;42705;50.326;18.772;2023-03-05T16:17:39;97675.49;;;-0.02;66.47
56825;BME280;42705;50.326;18.772;2023-03-05T16:23:04;97677.56;;;-0.02;66.92
56825;BME280;42705;50.326;18.772;2023-03-05T16:28:27;97677.77;;;-0.06;66.93
56825;BME280;42705;50.326;18.772;2023-03-05T16:33:49;97674.06;;;-0.01;67.01
56825;BME280;42705;50.326;18.772;2023-03-05T16:39:11;97676.61;;;0.03;67.05
56825;BME280;42705;50.326;18.772;2023-03-05T16:44:33;97687.59;;;-0.01;67.30
56825;BME280;42705;50.326;18.772;2023-03-05T16:49:56;97701.06;;;-0.08;67.47
56825;BME280;42705;50.326;18.772;2023-03-05T16:55:19;97708.59;;;-0.16;68.62
56825;BME280;42705;50.326;18.772;2023-03-05T17:00:41;97716.40;;;-0.26;69.06
56825;BME280;42705;50.326;18.772;2023-03-05T17:06:26;97716.27;;;-0.39;69.51
56825;BME280;42705;50.326;18.772;2023-03-05T17:11:50;97711.20;;;-0.40;69.94
56825;BME280;42705;50.326;18.772;2023-03-05T17:17:12;97710.15;;;-0.43;70.35
56825;BME280;42705;50.326;18.772;2023-03-05T17:22:35;97704.80;;;-0.42;70.70
56825;BME280;42705;50.326;18.772;2023-03-05T17:27:57;97701.59;;;-0.37;70.83
56825;BME280;42705;50.326;18.772;2023-03-05T17:33:19;97701.64;;;-0.38;71.00
56825;BME280;42705;50.326;18.772;2023-03-05T17:38:42;97698.55;;;-0.44;70.86
56825;BME280;42705;50.326;18.772;2023-03-05T17:44:05;97692.19;;;-0.47;71.25
56825;BME280;42705;50.326;18.772;2023-03-05T17:49:27;97694.84;;;-0.45;71.39
56825;BME280;42705;50.326;18.772;2023-03-05T17:54:49;97696.36;;;-0.48;71.38
56825;BME280;42705;50.326;18.772;2023-03-05T18:00:17;97690.92;;;-0.49;71.48
56825;BME280;42705;50.326;18.772;2023-03-05T18:05:40;97688.48;;;-0.54;71.62
56825;BME280;42705;50.326;18.772;2023-03-05T18:11:02;97678.59;;;-0.58;71.76
56825;BME280;42705;50.326;18.772;2023-03-05T18:16:24;97677.06;;;-0.61;71.86
56825;BME280;42705;50.326;18.772;2023-03-05T18:21:47;97680.46;;;-0.61;71.90
56825;BME280;42705;50.326;18.772;2023-03-05T18:27:12;97679.56;;;-0.63;71.67
56825;BME280;42705;50.326;18.772;2023-03-05T18:32:35;97680.75;;;-0.60;71.74
56825;BME280;42705;50.326;18.772;2023-03-05T18:37:58;97681.13;;;-0.63;71.63
56825;BME280;42705;50.326;18.772;2023-03-05T18:43:22;97689.46;;;-0.68;71.62
56825;BME280;42705;50.326;18.772;2023-03-05T18:48:45;97688.30;;;-0.65;71.90
56825;BME280;42705;50.326;18.772;2023-03-05T18:54:09;97684.29;;;-0.65;72.03
56825;BME280;42705;50.326;18.772;2023-03-05T18:59:31;97675.98;;;-0.67;72.16
56825;BME280;42705;50.326;18.772;2023-03-05T19:04:53;97672.91;;;-0.57;72.35
56825;BME280;42705;50.326;18.772;2023-03-05T19:10:16;97671.89;;;-0.55;72.27
56825;BME280;42705;50.326;18.772;2023-03-05T19:15:39;97668.44;;;-0.61;72.27
56825;BME280;42705;50.326;18.772;2023-03-05T19:21:01;97669.45;;;-0.57;72.47
56825;BME280;42705;50.326;18.772;2023-03-05T19:26:23;97678.67;;;-0.48;73.00
56825;BME280;42705;50.326;18.772;2023-03-05T19:31:45;97676.44;;;-0.39;72.77
56825;BME280;42705;50.326;18.772;2023-03-05T19:37:08;97667.33;;;-0.26;73.02
56825;BME280;42705;50.326;18.772;2023-03-05T19:42:30;97663.82;;;-0.20;72.93
56825;BME280;42705;50.326;18.772;2023-03-05T19:47:52;97661.14;;;-0.18;72.86
56825;BME280;42705;50.326;18.772;2023-03-05T19:53:14;97660.27;;;-0.14;73.31
56825;BME280;42705;50.326;18.772;2023-03-05T19:58:37;97657.19;;;-0.00;73.19
56825;BME280;42705;50.326;18.772;2023-03-05T20:04:00;97652.71;;;0.11;73.32
56825;BME280;42705;50.326;18.772;2023-03-05T20:09:23;97655.25;;;0.21;73.02
56825;BME280;42705;50.326;18.772;2023-03-05T20:14:46;97652.65;;;0.18;72.75
56825;BME280;42705;50.326;18.772;2023-03-05T20:20:16;97647.93;;;0.25;73.06
56825;BME280;42705;50.326;18.772;2023-03-05T20:25:38;97650.62;;;0.35;72.84
56825;BME280;42705;50.326;18.772;2023-03-05T20:31:01;97647.02;;;0.34;72.58
56825;BME280;42705;50.326;18.772;2023-03-05T20:36:23;97638.34;;;0.36;72.75
56825;BME280;42705;50.326;18.772;2023-03-05T20:41:45;97637.00;;;0.33;72.49
56825;BME280;42705;50.326;18.772;2023-03-05T20:47:33;97632.05;;;0.21;72.39
56825;BME280;42705;50.326;18.772;2023-03-05T20:53:01;97623.46;;;0.09;72.44
56825;BME280;42705;50.326;18.772;2023-03-05T20:58:24;97621.58;;;-0.02;72.59
56825;BME280;42705;50.326;18.772;2023-03-05T21:03:46;97627.75;;;-0.07;73.00
56825;BME280;42705;50.326;18.772;2023-03-05T21:09:08;97627.11;;;-0.08;72.82
56825;BME280;42705;50.326;18.772;2023-03-05T21:14:31;97621.88;;;-0.01;72.71
56825;BME280;42705;50.326;18.772;2023-03-05T21:19:58;97624.33;;;0.09;72.83
56825;BME280;42705;50.326;18.772;2023-03-05T21:25:23;97623.13;;;0.12;73.02
56825;BME280;42705;50.326;18.772;2023-03-05T21:30:48;97621.09;;;0.06;72.76
56825;BME280;42705;50.326;18.772;2023-03-05T21:36:12;97616.52;;;0.02;72.80
56825;BME280;42705;50.326;18.772;2023-03-05T21:41:39;97612.34;;;0.01;72.74
56825;BME280;42705;50.326;18.772;2023-03-05T21:47:01;97608.84;;;0.07;73.07
56825;BME280;42705;50.326;18.772;2023-03-05T21:52:23;97596.73;;;0.11;72.93
56825;BME280;42705;50.326;18.772;2023-03-05T21:57:45;97591.83;;;0.10;72.58
56825;BME280;42705;50.326;18.772;2023-03-05T22:03:08;97589.84;;;0.14;72.41
56825;BME280;42705;50.326;18.772;2023-03-05T22:08:30;97589.78;;;0.10;72.27
56825;BME280;42705;50.326;18.772;2023-03-05T22:13:52;97588.98;;;-0.20;71.97
56825;BME280;42705;50.326;18.772;2023-03-05T22:19:15;97590.84;;;-0.45;72.34
56825;BME280;42705;50.326;18.772;2023-03-05T22:24:37;97586.88;;;-0.68;72.57
56825;BME280;42705;50.326;18.772;2023-03-05T22:30:00;97585.17;;;-0.95;72.78
56825;BME280;42705;50.326;18.772;2023-03-05T22:35:22;97579.35;;;-1.10;73.40
56825;BME280;42705;50.326;18.772;2023-03-05T22:40:46;97582.55;;;-1.15;73.82
56825;BME280;42705;50.326;18.772;2023-03-05T22:46:14;97580.20;;;-1.12;73.98
56825;BME280;42705;50.326;18.772;2023-03-05T22:51:36;97573.27;;;-1.11;74.19
56825;BME280;42705;50.326;18.772;2023-03-05T22:56:58;97563.56;;;-1.12;74.26
56825;BME280;42705;50.326;18.772;2023-03-05T23:02:20;97574.98;;;-1.08;74.73
56825;BME280;42705;50.326;18.772;2023-03-05T23:07:43;97571.79;;;-0.91;75.11
56825;BME280;42705;50.326;18.772;2023-03-05T23:13:05;97573.01;;;-0.74;74.85
56825;BME280;42705;50.326;18.772;2023-03-05T23:18:27;97570.31;;;-0.72;74.68
56825;BME280;42705;50.326;18.772;2023-03-05T23:23:49;97565.46;;;-0.80;74.74
56825;BME280;42705;50.326;18.772;2023-03-05T23:29:32;97568.84;;;-0.73;74.79
56825;BME280;42705;50.326;18.772;2023-03-05T23:35:35;97579.17;;;-0.71;74.38
56825;BME280;42705;50.326;18.772;2023-03-05T23:40:57;97571.85;;;-0.87;74.35
56825;BME280;42705;50.326;18.772;2023-03-05T23:46:21;97565.42;;;-1.00;74.09
56825;BME280;42705;50.326;18.772;2023-03-05T23:51:43;97567.21;;;-1.13;74.21
56825;BME280;42705;50.326;18.772;2023-03-05T23:57:05;97566.47;;;-1.27;74.30
